Time;durP1;ratioP1;P1;durP2;ratioP2;P2;SDS_P1;SDS_P2;PMS_P1;PMS_P2;Temp;Humidity;BMP_temperature;BMP_pressure;BME280_temperature;BME280_humidity;BME280_pressure;Samples;Min_cycle;Max_cycle;Signal;HPM_P1;HPM_P2
2022/01/23 00:02:20;;;;;;;18.35;10.93;;;-1.00;99.90;;;;;;4987965;28;20352;-63
2022/01/23 00:04:47;;;;;;;18.27;9.25;;;-1.00;99.90;;;;;;4989825;28;20050;-63
2022/01/23 00:07:15;;;;;;;13.75;9.10;;;-1.00;99.90;;;;;;4990293;28;20092;-63
2022/01/23 00:09:43;;;;;;;17.15;10.15;;;-1.00;99.90;;;;;;4989657;28;20046;-63
2022/01/23 00:12:15;;;;;;;10.57;7.40;;;-1.00;99.90;;;;;;4989769;28;20045;-63
2022/01/23 00:17:49;;;;;;;13.13;7.53;;;-1.00;99.90;;;;;;4967153;28;20046;-63
2022/01/23 00:20:16;;;;;;;9.68;6.50;;;-1.10;99.90;;;;;;4966133;28;20051;-63
2022/01/23 00:22:50;;;;;;;10.68;6.57;;;-1.10;99.90;;;;;;4975866;28;20686;-63
2022/01/23 00:30:50;;;;;;;11.63;6.38;;;-1.20;99.90;;;;;;5004359;28;20057;-63
2022/01/23 00:33:17;;;;;;;11.38;6.70;;;-1.20;99.90;;;;;;4987285;28;20733;-63
2022/01/23 00:35:48;;;;;;;12.50;7.03;;;-1.30;99.90;;;;;;4987833;28;20486;-63
2022/01/23 00:38:16;;;;;;;8.18;5.90;;;-1.30;99.90;;;;;;4989063;28;20268;-63
2022/01/23 00:40:46;;;;;;;8.77;5.68;;;-1.30;99.90;;;;;;4987041;28;20268;-63
2022/01/23 00:43:17;;;;;;;10.35;6.90;;;-1.30;99.90;;;;;;4989614;28;20046;-63
2022/01/23 00:45:50;;;;;;;9.70;5.13;;;-1.30;99.90;;;;;;4989284;28;20411;-63
2022/01/23 00:48:21;;;;;;;9.27;6.13;;;-1.30;99.90;;;;;;4987104;28;20065;-63
2022/01/23 00:50:48;;;;;;;14.98;7.00;;;-1.30;99.90;;;;;;4986772;28;20137;-63
2022/01/23 00:53:15;;;;;;;14.30;6.70;;;-1.40;99.90;;;;;;4987401;28;20046;-63
2022/01/23 00:55:44;;;;;;;11.73;5.22;;;-1.30;99.90;;;;;;4988901;28;20037;-63
2022/01/23 00:58:12;;;;;;;8.20;5.20;;;-1.40;99.90;;;;;;4986648;28;20156;-63
2022/01/23 01:00:41;;;;;;;8.20;5.03;;;-1.40;99.90;;;;;;4986555;28;20291;-63
2022/01/23 01:03:08;;;;;;;7.10;4.63;;;-1.40;99.90;;;;;;4987145;28;20058;-63
2022/01/23 01:05:35;;;;;;;6.28;4.63;;;-1.40;99.90;;;;;;4985974;28;20050;-63
2022/01/23 01:08:05;;;;;;;7.95;3.35;;;-1.40;99.90;;;;;;4988821;28;20045;-62
2022/01/23 01:10:57;;;;;;;6.10;3.38;;;-1.40;99.90;;;;;;4986463;28;20108;-64
2022/01/23 01:13:24;;;;;;;6.30;3.97;;;-1.40;99.90;;;;;;4986644;28;20279;-63
2022/01/23 01:16:13;;;;;;;4.85;3.50;;;-1.40;99.90;;;;;;4988462;28;20617;-63
2022/01/23 01:35:24;;;;;;;4.90;3.58;;;-1.50;99.90;;;;;;4988561;28;20120;-63
2022/01/23 01:37:53;;;;;;;5.43;3.83;;;-1.50;99.90;;;;;;4986464;28;20143;-63
2022/01/23 01:40:22;;;;;;;4.90;3.38;;;-1.60;99.90;;;;;;4988078;28;20038;-62
2022/01/23 01:42:49;;;;;;;5.80;3.63;;;-1.60;99.90;;;;;;4986548;28;20042;-62
2022/01/23 01:45:27;;;;;;;6.70;3.58;;;-1.60;99.90;;;;;;4986032;28;20692;-62
2022/01/23 01:48:23;;;;;;;7.32;3.35;;;-1.60;99.90;;;;;;4986301;28;20058;-62
2022/01/23 01:50:58;;;;;;;5.50;3.55;;;-1.70;99.90;;;;;;4965693;28;20168;-63
2022/01/23 01:53:25;;;;;;;7.57;3.55;;;-1.70;99.90;;;;;;4968095;28;20050;-63
2022/01/23 01:55:56;;;;;;;3.60;3.00;;;-1.70;99.90;;;;;;4966489;28;20062;-63
2022/01/23 01:59:07;;;;;;;6.15;3.45;;;-1.70;99.90;;;;;;4966328;28;20054;-62
2022/01/23 02:10:13;;;;;;;4.82;3.17;;;-1.80;99.90;;;;;;4966379;28;20265;-63
2022/01/23 02:15:47;;;;;;;7.03;4.00;;;-1.90;99.90;;;;;;4966690;28;20505;-62
2022/01/23 02:18:21;;;;;;;5.15;2.88;;;-1.90;99.90;;;;;;4970695;28;20602;-62
2022/01/23 02:57:02;;;;;;;6.25;3.63;;;-1.60;99.90;;;;;;4985500;28;20491;-62
2022/01/23 02:59:32;;;;;;;8.95;5.82;;;-1.60;99.90;;;;;;4987118;28;20539;-62
2022/01/23 03:02:36;;;;;;;7.95;5.22;;;-1.60;99.90;;;;;;4985252;28;20490;-62
2022/01/23 03:06:09;;;;;;;8.43;5.35;;;-1.50;99.90;;;;;;4985155;28;20104;-62
2022/01/23 03:10:58;;;;;;;9.55;6.07;;;-1.40;99.90;;;;;;4986964;28;20307;-63
2022/01/23 03:13:52;;;;;;;13.43;8.10;;;-1.40;99.90;;;;;;4985704;28;20045;-62
2022/01/23 03:24:52;;;;;;;9.50;5.90;;;-1.20;99.90;;;;;;4984752;28;20661;-62
2022/01/23 03:32:29;;;;;;;7.20;4.90;;;-1.20;99.90;;;;;;4986543;28;20105;-61
2022/01/23 03:34:56;;;;;;;8.63;5.30;;;-1.20;99.90;;;;;;4967345;28;20465;-64
2022/01/23 03:37:23;;;;;;;8.02;4.43;;;-1.20;99.90;;;;;;4964968;28;20877;-64
2022/01/23 03:39:50;;;;;;;6.90;5.35;;;-1.20;99.90;;;;;;4967573;28;20046;-64
2022/01/23 03:42:17;;;;;;;9.05;6.63;;;-1.20;99.90;;;;;;4969599;28;20186;-62
2022/01/23 03:45:01;;;;;;;10.38;6.78;;;-1.20;99.90;;;;;;4970875;28;20477;-63
2022/01/23 03:47:39;;;;;;;8.75;6.07;;;-1.20;99.90;;;;;;4988757;28;20054;-63
2022/01/23 03:50:09;;;;;;;10.27;6.45;;;-1.20;99.90;;;;;;4987972;28;20037;-62
2022/01/23 03:52:39;;;;;;;16.42;8.23;;;-1.20;99.90;;;;;;4988404;28;20471;-62
2022/01/23 03:55:07;;;;;;;12.55;7.70;;;-1.20;99.90;;;;;;4987912;28;20038;-63
2022/01/23 03:57:35;;;;;;;13.85;8.80;;;-1.20;99.90;;;;;;4990618;28;20049;-62
2022/01/23 04:00:05;;;;;;;14.77;8.88;;;-1.20;99.90;;;;;;4990176;28;20046;-63
2022/01/23 04:02:39;;;;;;;14.77;8.60;;;-1.20;99.90;;;;;;4988439;28;20084;-63
2022/01/23 04:05:11;;;;;;;13.73;8.63;;;-1.20;99.90;;;;;;4987883;28;20414;-62
2022/01/23 04:07:38;;;;;;;;;;;-1.20;99.90;;;;;;4988101;28;20065;-62
2022/01/23 04:10:05;;;;;;;17.40;10.23;;;-1.20;99.90;;;;;;4988364;28;19936;-63
2022/01/23 04:12:45;;;;;;;14.85;9.18;;;-1.20;99.90;;;;;;4987653;28;20050;-63
2022/01/23 05:04:54;;;;;;;25.05;15.13;;;-1.00;99.90;;;;;;4975929;28;20479;-63
2022/01/23 05:07:44;;;;;;;28.52;14.80;;;-1.00;99.90;;;;;;4988405;28;20251;-63
2022/01/23 05:10:11;;;;;;;28.10;16.50;;;-1.00;99.90;;;;;;4988321;28;20057;-62
2022/01/23 05:12:50;;;;;;;24.08;15.38;;;-1.00;99.90;;;;;;4986726;28;20045;-62
2022/01/23 05:15:17;;;;;;;27.58;15.60;;;-1.00;99.90;;;;;;4985991;28;20547;-63
2022/01/23 05:17:44;;;;;;;27.30;16.75;;;-1.00;99.90;;;;;;4986826;28;20439;-62
2022/01/23 05:20:13;;;;;;;31.33;19.02;;;-1.00;99.90;;;;;;4986445;28;20084;-63
2022/01/23 05:22:49;;;;;;;31.95;19.15;;;-1.00;99.90;;;;;;4987130;28;20057;-62
2022/01/23 05:25:21;;;;;;;26.65;17.80;;;-1.00;99.90;;;;;;4988893;28;20046;-63
2022/01/23 05:27:52;;;;;;;32.83;19.02;;;-1.00;99.90;;;;;;4970144;28;20443;-63
2022/01/23 05:30:19;;;;;;;30.42;18.00;;;-1.00;99.90;;;;;;4985861;28;20041;-63
2022/01/23 05:32:46;;;;;;;34.53;18.92;;;-1.10;99.90;;;;;;4983077;28;20315;-63
2022/01/23 05:35:18;;;;;;;31.02;18.45;;;-1.10;99.90;;;;;;4967543;28;20042;-62
2022/01/23 05:37:45;;;;;;;29.70;17.48;;;-1.10;99.90;;;;;;4966525;28;20057;-63
2022/01/23 05:40:17;;;;;;;34.83;18.40;;;-1.10;99.90;;;;;;4966758;28;20047;-63
2022/01/23 05:42:46;;;;;;;30.45;19.02;;;-1.10;99.90;;;;;;4966990;28;20058;-63
2022/01/23 05:45:13;;;;;;;33.17;17.83;;;-1.20;99.90;;;;;;4966484;28;20515;-63
2022/01/23 05:48:04;;;;;;;30.33;17.83;;;-1.20;99.90;;;;;;4977070;28;20104;-63
2022/01/23 05:51:00;;;;;;;29.15;17.23;;;-1.20;99.90;;;;;;4966976;28;20181;-62
2022/01/23 05:53:42;;;;;;;27.42;17.30;;;-1.20;99.90;;;;;;4966461;28;20065;-62
2022/01/23 05:56:29;;;;;;;31.50;17.15;;;-1.30;99.90;;;;;;4968623;28;20331;-62
2022/01/23 05:59:02;;;;;;;28.38;16.88;;;-1.30;99.90;;;;;;4981831;28;20057;-62
2022/01/23 06:01:33;;;;;;;33.45;15.93;;;-1.30;99.90;;;;;;4982743;28;20560;-62
2022/01/23 06:04:05;;;;;;;29.55;16.65;;;-1.30;99.90;;;;;;4982198;28;20133;-62
2022/01/23 06:06:39;;;;;;;33.55;16.67;;;-1.40;99.90;;;;;;4966014;28;20053;-63
2022/01/23 06:09:06;;;;;;;28.80;16.63;;;-1.40;99.90;;;;;;4965637;28;20528;-62
2022/01/23 06:11:32;;;;;;;27.55;15.40;;;-1.40;99.90;;;;;;4981868;28;20306;-63
2022/01/23 06:13:59;;;;;;;;;;;-1.40;99.90;;;;;;4968421;28;20936;-62
2022/01/23 06:16:26;;;;;;;29.40;15.05;;;-1.40;99.90;;;;;;4967719;28;20414;-62
2022/01/23 06:19:12;;;;;;;30.83;16.75;;;-1.50;99.90;;;;;;4985806;28;20493;-63
2022/01/23 06:21:57;;;;;;;26.20;15.65;;;-1.50;99.90;;;;;;4987495;28;20057;-63
2022/01/23 06:24:47;;;;;;;30.40;15.85;;;-1.50;99.90;;;;;;4987254;28;20061;-63
2022/01/23 06:27:31;;;;;;;29.98;17.05;;;-1.40;99.90;;;;;;4985659;28;20081;-63
2022/01/23 06:29:58;;;;;;;26.92;15.27;;;-1.40;99.90;;;;;;4982453;28;20073;-63
2022/01/23 06:32:25;;;;;;;30.30;17.05;;;-1.40;99.90;;;;;;4965922;28;20100;-64
2022/01/23 06:34:53;;;;;;;32.50;17.42;;;-1.40;99.90;;;;;;4984492;28;20052;-63
2022/01/23 06:37:19;;;;;;;32.38;17.98;;;-1.40;99.90;;;;;;4985860;28;20073;-63
2022/01/23 06:39:47;;;;;;;33.42;17.27;;;-1.40;99.90;;;;;;4985019;28;20137;-63
2022/01/23 06:42:21;;;;;;;33.42;17.80;;;-1.40;99.90;;;;;;4985183;28;20612;-63
2022/01/23 06:45:17;;;;;;;33.97;18.80;;;-1.40;99.90;;;;;;4984920;28;20046;-63
2022/01/23 06:47:47;;;;;;;37.22;19.67;;;-1.30;99.90;;;;;;4985442;28;20315;-63
2022/01/23 06:50:15;;;;;;;31.77;18.63;;;-1.40;99.90;;;;;;4984793;28;20124;-63
2022/01/23 06:52:42;;;;;;;31.40;17.42;;;-1.30;99.90;;;;;;4985147;28;20524;-63
2022/01/23 06:55:10;;;;;;;36.53;19.88;;;-1.30;99.90;;;;;;4985000;28;20056;-63
2022/01/23 06:57:38;;;;;;;34.47;19.13;;;-1.30;99.90;;;;;;4984922;28;20479;-63
2022/01/23 07:00:07;;;;;;;34.10;18.77;;;-1.30;99.90;;;;;;4984704;28;20044;-63
2022/01/23 07:02:52;;;;;;;31.48;16.98;;;-1.30;99.90;;;;;;4985875;28;20627;-63
2022/01/23 07:05:34;;;;;;;31.77;19.00;;;-1.30;99.90;;;;;;4984920;28;20083;-63
2022/01/23 07:08:15;;;;;;;33.25;18.52;;;-1.30;99.90;;;;;;4985171;28;20370;-63
2022/01/23 07:11:05;;;;;;;31.50;19.13;;;-1.30;99.90;;;;;;4983268;28;20057;-63
2022/01/23 07:13:46;;;;;;;35.45;18.52;;;-1.30;99.90;;;;;;4986895;28;20050;-61
2022/01/23 07:16:36;;;;;;;32.53;18.88;;;-1.20;99.90;;;;;;4988546;28;20165;-58
2022/01/23 07:19:13;;;;;;;31.63;17.42;;;-1.20;99.90;;;;;;4989689;28;20121;-59
2022/01/23 07:21:47;;;;;;;37.50;19.42;;;-1.20;99.90;;;;;;4988564;28;20410;-59
2022/01/23 07:24:15;;;;;;;33.65;18.92;;;-1.20;99.90;;;;;;4988818;28;20045;-58
2022/01/23 07:26:43;;;;;;;37.55;20.65;;;-1.20;99.90;;;;;;4988279;28;20586;-59
2022/01/23 07:29:11;;;;;;;36.38;19.05;;;-1.10;99.90;;;;;;4987987;28;20176;-58
2022/01/23 07:34:09;;;;;;;37.30;20.13;;;-1.10;99.90;;;;;;4999395;28;20056;-59
2022/01/23 07:36:37;;;;;;;38.30;21.40;;;-1.00;99.90;;;;;;4988301;28;20052;-59
2022/01/23 07:39:36;;;;;;;37.25;21.23;;;-0.80;99.90;;;;;;4976902;28;20054;-59
2022/01/23 07:42:08;;;;;;;37.38;19.63;;;-0.60;99.90;;;;;;4988089;28;20049;-59
2022/01/23 07:45:08;;;;;;;38.90;19.77;;;-0.40;99.90;;;;;;4988683;28;20050;-59
2022/01/23 07:47:53;;;;;;;31.60;17.65;;;-0.10;99.90;;;;;;4990045;28;20458;-59
2022/01/23 07:50:29;;;;;;;31.10;16.65;;;0.20;99.90;;;;;;4989131;28;20542;-58
2022/01/23 07:53:05;;;;;;;31.80;17.25;;;0.40;99.90;;;;;;4987863;28;20088;-59
2022/01/23 07:55:46;;;;;;;29.48;16.70;;;0.50;99.90;;;;;;4988793;28;20519;-59
2022/01/23 07:58:21;;;;;;;27.65;15.90;;;0.60;99.90;;;;;;4989151;28;20042;-59
2022/01/23 08:01:06;;;;;;;26.25;15.02;;;0.60;99.90;;;;;;4989152;28;20064;-58
2022/01/23 08:03:51;;;;;;;31.42;15.10;;;0.60;99.90;;;;;;4988185;28;20254;-58
2022/01/23 08:06:18;;;;;;;22.05;13.15;;;0.60;99.90;;;;;;4988620;28;20049;-59
2022/01/23 08:08:48;;;;;;;21.95;12.95;;;0.50;99.90;;;;;;4989881;28;20501;-58
2022/01/23 08:11:23;;;;;;;23.13;12.65;;;0.40;99.90;;;;;;4989008;28;20081;-58
2022/01/23 08:13:50;;;;;;;23.65;13.90;;;0.30;99.90;;;;;;4987721;28;20397;-58
2022/01/23 08:16:17;;;;;;;24.15;13.77;;;0.30;99.90;;;;;;4989297;28;20046;-58
2022/01/23 08:18:44;;;;;;;22.60;13.25;;;0.20;99.90;;;;;;4974351;28;20545;-58
2022/01/23 08:21:10;;;;;;;;;;;0.20;99.90;;;;;;4988987;28;20081;-58
2022/01/23 08:23:38;;;;;;;24.55;12.60;;;0.20;99.90;;;;;;4989393;28;19929;-59
2022/01/23 08:26:08;;;;;;;24.15;12.65;;;0.20;99.90;;;;;;4989503;28;20072;-58
2022/01/23 08:28:35;;;;;;;26.98;14.80;;;0.20;99.90;;;;;;4988837;28;20098;-58
2022/01/23 08:31:02;;;;;;;27.58;14.55;;;0.10;99.90;;;;;;4986739;28;20069;-59
2022/01/23 08:33:29;;;;;;;27.17;15.40;;;0.10;99.90;;;;;;4978445;28;20513;-59
2022/01/23 08:35:57;;;;;;;;;;;0.10;99.90;;;;;;4970102;28;20050;-59
2022/01/23 08:38:24;;;;;;;;;;;0.10;99.90;;;;;;4970262;28;20384;-59
2022/01/23 08:43:36;;;;;;;22.40;13.77;;;0.10;99.90;;;;;;4969661;28;20445;-56
2022/01/23 08:46:04;;;;;;;20.08;12.48;;;0.20;99.90;;;;;;4969074;28;20050;-56
2022/01/23 08:48:32;;;;;;;20.05;12.98;;;0.20;99.90;;;;;;4981736;28;20471;-56
2022/01/23 08:50:58;;;;;;;19.27;12.00;;;0.20;99.90;;;;;;4987400;28;20068;-56
2022/01/23 08:53:25;;;;;;;21.02;12.07;;;0.30;99.90;;;;;;4987067;28;20056;-56
2022/01/23 08:55:52;;;;;;;21.55;13.77;;;0.30;99.90;;;;;;4988269;28;20060;-57
2022/01/23 08:58:19;;;;;;;22.73;13.13;;;0.30;99.90;;;;;;4988798;28;20049;-58
2022/01/23 09:00:46;;;;;;;21.48;12.43;;;0.30;99.90;;;;;;4986709;28;20353;-57
2022/01/23 09:03:13;;;;;;;21.67;12.95;;;0.40;99.90;;;;;;4984422;28;20065;-58
2022/01/23 09:05:40;;;;;;;25.38;14.50;;;0.40;99.90;;;;;;5003531;28;20049;-56
2022/01/23 09:08:07;;;;;;;27.00;14.45;;;0.50;99.90;;;;;;4986468;28;20528;-67
2022/01/23 09:10:41;;;;;;;;;;;0.50;99.90;;;;;;4987685;28;20589;-57
2022/01/23 09:13:31;;;;;;;23.65;13.07;;;0.60;99.90;;;;;;4988546;28;20287;-58
2022/01/23 09:15:59;;;;;;;23.38;13.82;;;0.60;99.90;;;;;;4988785;28;20045;-58
2022/01/23 09:18:27;;;;;;;23.88;14.18;;;0.70;99.90;;;;;;4986647;28;20048;-58
2022/01/23 09:20:54;;;;;;;26.10;15.13;;;0.70;99.90;;;;;;4986522;28;20169;-62
2022/01/23 09:23:20;;;;;;;33.13;17.75;;;0.90;99.90;;;;;;4988491;28;20049;-58
2022/01/23 09:25:47;;;;;;;31.58;18.65;;;1.00;99.90;;;;;;4985455;28;20042;-58
2022/01/23 09:28:17;;;;;;;37.30;20.48;;;1.20;99.90;;;;;;4983422;28;20157;-58
2022/01/23 09:30:48;;;;;;;38.97;24.02;;;1.40;99.90;;;;;;4987720;28;20052;-57
2022/01/23 09:33:16;;;;;;;43.13;24.73;;;1.70;99.90;;;;;;4986386;28;20052;-58
2022/01/23 09:35:43;;;;;;;39.83;22.85;;;2.00;99.90;;;;;;4987025;28;20050;-58
2022/01/23 09:38:10;;;;;;;;;;;2.30;99.90;;;;;;4987552;28;20088;-57
2022/01/23 09:40:44;;;;;;;37.50;22.58;;;2.50;99.90;;;;;;4987822;28;19925;-56
2022/01/23 09:43:19;;;;;;;42.25;23.65;;;2.70;99.90;;;;;;4986705;28;20046;-57
2022/01/23 09:45:48;;;;;;;37.78;22.38;;;3.00;99.90;;;;;;4987443;28;20064;-56
2022/01/23 09:48:22;;;;;;;36.85;22.02;;;3.10;99.90;;;;;;4987392;28;20046;-56
2022/01/23 09:50:52;;;;;;;34.03;21.80;;;3.20;99.90;;;;;;4985834;28;20637;-57
2022/01/23 09:53:21;;;;;;;34.53;21.27;;;3.30;99.90;;;;;;4987260;28;20049;-58
2022/01/23 09:55:49;;;;;;;30.63;18.77;;;3.50;99.90;;;;;;4987552;28;20512;-58
2022/01/23 09:58:16;;;;;;;36.17;18.83;;;3.50;99.90;;;;;;4988137;28;20045;-58
2022/01/23 10:00:44;;;;;;;34.97;19.88;;;3.60;99.90;;;;;;4987145;28;20069;-58
2022/01/23 10:03:11;;;;;;;31.58;17.42;;;3.60;99.90;;;;;;4988281;28;20057;-50
2022/01/23 10:05:38;;;;;;;32.88;20.58;;;3.60;99.90;;;;;;4985916;28;20081;-47
2022/01/23 10:08:07;;;;;;;34.72;21.35;;;3.60;99.90;;;;;;4985030;28;20136;-47
2022/01/23 10:10:39;;;;;;;35.42;21.00;;;3.60;99.90;;;;;;4987885;28;20049;-58
2022/01/23 10:13:07;;;;;;;30.60;20.13;;;3.60;99.90;;;;;;4988758;28;20170;-58
2022/01/23 10:15:34;;;;;;;34.60;20.90;;;3.60;99.90;;;;;;4987550;28;20551;-58
2022/01/23 10:18:01;;;;;;;;;;;3.50;99.90;;;;;;4979260;28;20448;-58
2022/01/23 10:20:28;;;;;;;32.97;19.90;;;3.60;99.90;;;;;;4979463;28;20000;-58
2022/01/23 10:22:57;;;;;;;35.22;21.35;;;3.50;99.90;;;;;;4988351;28;20096;-61
2022/01/23 10:25:30;;;;;;;36.72;21.77;;;3.50;99.90;;;;;;4986821;28;20124;-58
2022/01/23 10:28:06;;;;;;;33.70;21.10;;;3.50;99.90;;;;;;4982250;28;20246;-59
2022/01/23 10:30:44;;;;;;;31.55;21.10;;;3.40;99.90;;;;;;4986413;28;20042;-57
2022/01/23 10:33:11;;;;;;;34.17;19.88;;;3.40;99.90;;;;;;4985966;28;20050;-57
2022/01/23 10:35:57;;;;;;;;;;;3.30;99.90;;;;;;4985826;28;20049;-57
2022/01/23 10:38:26;;;;;;;27.70;17.58;;;3.40;99.90;;;;;;4986532;28;19925;-62
2022/01/23 10:41:15;;;;;;;30.58;18.60;;;3.30;99.90;;;;;;4985400;28;20037;-57
2022/01/23 10:46:49;;;;;;;30.45;19.33;;;3.50;99.90;;;;;;4971760;28;20290;-56
2022/01/23 10:49:16;;;;;;;29.77;19.13;;;3.70;99.90;;;;;;4985113;28;20046;-56
2022/01/23 10:55:37;;;;;;;34.05;20.88;;;4.20;99.90;;;;;;4988802;28;20334;-57
2022/01/23 10:58:17;;;;;;;29.40;18.65;;;4.50;99.90;;;;;;4990615;28;20053;-58
2022/01/23 11:00:43;;;;;;;29.70;18.08;;;4.70;99.90;;;;;;4991174;28;20333;-57
2022/01/23 11:03:22;;;;;;;31.63;21.17;;;5.00;99.90;;;;;;4991529;28;20465;-57
2022/01/23 11:05:51;;;;;;;31.55;19.77;;;5.30;99.90;;;;;;4991714;28;20252;-57
2022/01/23 11:08:17;;;;;;;38.35;24.08;;;5.70;99.90;;;;;;4990924;28;20054;-57
2022/01/23 11:11:05;;;;;;;37.75;22.38;;;6.00;99.90;;;;;;4990857;28;20053;-57
2022/01/23 11:19:30;;;;;;;30.88;20.48;;;7.30;99.90;;;;;;4975136;28;20100;-57
2022/01/23 11:21:59;;;;;;;34.75;20.85;;;7.60;99.90;;;;;;4990920;28;20042;-57
2022/01/23 11:24:45;;;;;;;28.70;18.23;;;7.80;99.90;;;;;;4990584;28;20053;-57
2022/01/23 11:27:13;;;;;;;33.33;21.17;;;8.10;99.90;;;;;;4990942;28;20038;-57
2022/01/23 11:30:07;;;;;;;34.97;19.38;;;8.30;99.90;;;;;;4990047;28;20050;-57
2022/01/23 11:32:37;;;;;;;27.42;18.52;;;8.60;99.90;;;;;;4990371;28;20423;-57
2022/01/23 11:35:12;;;;;;;24.75;15.63;;;8.90;99.90;;;;;;4988576;28;20041;-57
2022/01/23 11:37:50;;;;;;;22.92;16.13;;;9.10;99.90;;;;;;4990103;28;20342;-56
2022/01/23 11:53:58;;;;;;;14.68;10.50;;;9.60;97.70;;;;;;4990913;28;20046;-57
2022/01/23 11:56:28;;;;;;;15.68;9.50;;;9.30;97.40;;;;;;4990015;28;20332;-57
2022/01/23 11:59:16;;;;;;;14.70;9.38;;;9.00;97.50;;;;;;4989559;28;20046;-57
2022/01/23 12:01:46;;;;;;;13.40;9.95;;;8.50;97.50;;;;;;4990103;28;20547;-57
2022/01/23 12:07:11;;;;;;;13.93;9.95;;;7.70;99.50;;;;;;4990108;28;20142;-58
2022/01/23 12:09:39;;;;;;;15.80;11.73;;;7.30;99.90;;;;;;4989480;28;20444;-58
2022/01/23 12:12:39;;;;;;;15.82;11.27;;;7.00;99.90;;;;;;4988540;28;20108;-58
2022/01/23 12:18:22;;;;;;;18.10;10.80;;;6.40;99.90;;;;;;4989926;28;20449;-58
2022/01/23 12:20:51;;;;;;;14.15;10.15;;;6.20;99.90;;;;;;4989344;28;20053;-58
2022/01/23 12:23:19;;;;;;;16.80;10.73;;;6.00;99.90;;;;;;4989598;28;20038;-58
2022/01/23 12:25:54;;;;;;;21.45;11.35;;;5.80;99.90;;;;;;4989111;28;20042;-58
2022/01/23 12:28:33;;;;;;;17.38;10.68;;;5.60;99.90;;;;;;4989286;28;20046;-58
2022/01/23 12:31:14;;;;;;;14.75;9.77;;;5.50;99.90;;;;;;4989083;28;20077;-57
2022/01/23 12:33:42;;;;;;;14.07;9.88;;;5.30;99.90;;;;;;4989147;28;20056;-58
2022/01/23 12:36:15;;;;;;;16.60;8.60;;;5.20;99.90;;;;;;4983323;28;20478;-58
2022/01/23 12:38:47;;;;;;;12.77;8.35;;;5.10;99.90;;;;;;4977874;28;20078;-58
2022/01/23 12:41:28;;;;;;;8.85;6.47;;;5.00;99.90;;;;;;4969172;28;20486;-57
2022/01/23 12:44:01;;;;;;;14.95;9.43;;;4.90;99.90;;;;;;4978942;28;20061;-57
2022/01/23 12:46:47;;;;;;;17.45;10.88;;;4.90;99.90;;;;;;4987526;28;20076;-57
2022/01/23 12:49:26;;;;;;;18.02;11.00;;;4.90;99.90;;;;;;4988622;28;20210;-57
2022/01/23 12:52:14;;;;;;;17.75;11.63;;;5.00;99.90;;;;;;4989076;28;20317;-58
2022/01/23 12:54:46;;;;;;;17.80;11.20;;;5.00;99.90;;;;;;4986281;28;20054;-57
2022/01/23 12:57:19;;;;;;;17.90;12.68;;;5.00;99.90;;;;;;4988918;28;20054;-57
2022/01/23 12:59:58;;;;;;;16.83;11.10;;;5.10;99.90;;;;;;4989246;28;20053;-57
2022/01/23 13:02:31;;;;;;;17.73;10.88;;;5.00;99.90;;;;;;4988966;28;20042;-57
2022/01/23 13:04:58;;;;;;;15.80;10.98;;;5.00;99.90;;;;;;4989282;28;20116;-58
2022/01/23 13:08:19;;;;;;;;;;;4.90;99.90;;;;;;4989526;28;20707;-58
2022/01/23 13:10:30;;;;;;;18.02;10.55;;;4.80;99.90;;;;;;4982274;28;20300;-58
2022/01/23 13:13:16;;;;;;;18.17;11.30;;;4.80;99.90;;;;;;4985305;28;20069;-58
2022/01/23 13:16:35;;;;;;;20.38;12.55;;;4.70;99.90;;;;;;4986782;28;20518;-63
2022/01/23 13:19:16;;;;;;;17.38;11.68;;;4.60;99.90;;;;;;4973251;28;20097;-56
2022/01/23 13:32:24;;;;;;;19.42;11.88;;;4.10;99.90;;;;;;4988153;28;20112;-55
2022/01/23 13:34:59;;;;;;;17.70;11.38;;;3.90;99.90;;;;;;4986420;28;20069;-56
2022/01/23 13:37:28;;;;;;;16.77;9.63;;;3.80;99.90;;;;;;4984379;28;21378;-56
2022/01/23 13:40:04;;;;;;;16.45;10.40;;;3.80;99.90;;;;;;4966598;28;20069;-56
2022/01/23 13:59:35;;;;;;;13.10;7.97;;;3.70;99.90;;;;;;4987375;28;20476;-55
2022/01/23 14:02:16;;;;;;;12.95;9.77;;;3.70;99.90;;;;;;4986750;28;20442;-55
2022/01/23 14:04:53;;;;;;;12.00;8.40;;;3.70;99.90;;;;;;4986480;28;20148;-57
2022/01/23 14:07:25;;;;;;;13.68;8.05;;;3.60;99.90;;;;;;4987968;28;20046;-56
2022/01/23 14:09:56;;;;;;;13.63;8.30;;;3.60;99.90;;;;;;4987034;28;20258;-55
2022/01/23 14:12:24;;;;;;;15.02;9.52;;;3.60;99.90;;;;;;4983946;28;20471;-56
2022/01/23 14:15:23;;;;;;;14.52;8.88;;;3.50;99.90;;;;;;4987491;28;20395;-56
2022/01/23 14:18:09;;;;;;;17.13;8.25;;;3.50;99.90;;;;;;4987760;28;20056;-56
2022/01/23 14:20:43;;;;;;;11.05;7.15;;;3.50;99.90;;;;;;4984890;28;20042;-56
2022/01/23 14:23:14;;;;;;;9.57;7.13;;;3.50;99.90;;;;;;4986975;28;20053;-56
2022/01/23 14:25:53;;;;;;;15.07;8.02;;;3.50;99.90;;;;;;4985622;28;20123;-57
2022/01/23 14:28:28;;;;;;;11.70;6.72;;;3.50;99.90;;;;;;4983971;28;20049;-57
2022/01/23 14:30:59;;;;;;;10.65;6.85;;;3.50;99.90;;;;;;4985620;28;20108;-56
2022/01/23 14:33:33;;;;;;;10.93;6.57;;;3.40;99.90;;;;;;4987073;28;20626;-57
2022/01/23 14:36:30;;;;;;;16.48;7.68;;;3.40;99.90;;;;;;4987046;28;20522;-57
2022/01/23 14:39:01;;;;;;;9.18;6.28;;;3.40;99.90;;;;;;4983405;28;20539;-57
2022/01/23 14:41:30;;;;;;;14.45;7.38;;;3.40;99.90;;;;;;4987012;28;20046;-57
2022/01/23 14:43:58;;;;;;;12.52;7.75;;;3.40;99.90;;;;;;4978159;28;20069;-57
2022/01/23 14:46:26;;;;;;;12.63;6.82;;;3.40;99.90;;;;;;4987134;28;20129;-58
2022/01/23 14:48:59;;;;;;;13.55;7.90;;;3.30;99.90;;;;;;4986823;28;20478;-57
2022/01/23 14:51:29;;;;;;;12.43;7.50;;;3.30;99.90;;;;;;4987290;28;20057;-57
2022/01/23 14:53:56;;;;;;;13.55;7.82;;;3.30;99.90;;;;;;4986689;28;20062;-57
2022/01/23 14:56:25;;;;;;;10.15;7.18;;;3.30;99.90;;;;;;4987320;28;20115;-57
2022/01/23 14:58:51;;;;;;;12.80;6.80;;;3.30;99.90;;;;;;4986823;28;20053;-59
2022/01/23 15:01:18;;;;;;;;;;;3.30;99.90;;;;;;4985899;28;20467;-55
2022/01/23 15:03:52;;;;;;;10.13;6.73;;;3.30;99.90;;;;;;4987190;28;20028;-56
2022/01/23 15:06:29;;;;;;;10.88;6.88;;;3.20;99.90;;;;;;4986945;28;20448;-55
2022/01/23 15:09:03;;;;;;;14.10;8.43;;;3.20;99.90;;;;;;4984924;28;20172;-55
2022/01/23 15:11:30;;;;;;;13.07;8.27;;;3.20;99.90;;;;;;4986594;28;20046;-56
2022/01/23 15:13:56;;;;;;;12.93;7.60;;;3.20;99.90;;;;;;4985055;28;20558;-55
2022/01/23 15:16:27;;;;;;;12.68;7.28;;;3.20;99.90;;;;;;4986950;28;20073;-56
2022/01/23 15:18:54;;;;;;;11.05;7.13;;;3.10;99.90;;;;;;4965760;28;20254;-55
2022/01/23 15:21:20;;;;;;;15.40;8.23;;;3.10;99.90;;;;;;4987122;28;20073;-54
2022/01/23 15:23:47;;;;;;;;;;;3.10;99.90;;;;;;4988059;28;20050;-58
2022/01/23 15:26:15;;;;;;;12.57;7.82;;;3.10;99.90;;;;;;4985718;28;20103;-58
2022/01/23 15:28:42;;;;;;;;;;;3.10;99.90;;;;;;4987144;28;20054;-58
2022/01/23 15:31:09;;;;;;;13.50;7.07;;;3.10;99.90;;;;;;4986450;28;20007;-57
2022/01/23 15:33:35;;;;;;;8.35;6.05;;;3.00;99.90;;;;;;4987036;28;20084;-57
2022/01/23 15:36:02;;;;;;;;;;;3.00;99.90;;;;;;4984443;28;20093;-57
2022/01/23 15:38:30;;;;;;;17.90;9.45;;;3.00;99.90;;;;;;4984985;28;20407;-58
2022/01/23 15:40:56;;;;;;;12.77;7.95;;;3.00;99.90;;;;;;4989228;28;20054;-59
2022/01/23 15:43:23;;;;;;;;;;;3.00;99.90;;;;;;4990123;28;20037;-59
2022/01/23 15:45:52;;;;;;;11.68;7.45;;;3.00;99.90;;;;;;4988943;28;19932;-59
2022/01/23 15:48:19;;;;;;;14.20;7.28;;;3.00;99.90;;;;;;4989625;28;20501;-59
2022/01/23 15:50:46;;;;;;;10.23;7.25;;;2.90;99.90;;;;;;4970231;28;20563;-59
2022/01/23 15:53:13;;;;;;;;;;;2.90;99.90;;;;;;4984013;28;20054;-60
2022/01/23 15:55:40;;;;;;;13.25;7.43;;;2.90;99.90;;;;;;4989157;28;20355;-64
2022/01/23 15:58:06;;;;;;;;;;;2.90;99.90;;;;;;4990998;28;20042;-63
2022/01/23 16:00:34;;;;;;;11.68;7.18;;;2.90;99.90;;;;;;4989167;28;20430;-64
2022/01/23 16:03:02;;;;;;;12.00;7.35;;;2.80;99.90;;;;;;4989804;28;20389;-64
2022/01/23 16:05:29;;;;;;;11.52;6.93;;;2.80;99.90;;;;;;4989834;28;20058;-65
2022/01/23 16:07:55;;;;;;;;;;;2.80;99.90;;;;;;4985241;28;20459;-64
2022/01/23 16:10:22;;;;;;;16.40;8.30;;;2.80;99.90;;;;;;5002847;28;19921;-64
2022/01/23 16:12:49;;;;;;;16.85;8.85;;;2.70;99.90;;;;;;4990129;28;20046;-63
2022/01/23 16:15:16;;;;;;;;;;;2.70;99.90;;;;;;4990678;28;20437;-63
2022/01/23 16:17:45;;;;;;;10.23;6.63;;;2.70;99.90;;;;;;5001303;28;20702;-63
2022/01/23 16:20:13;;;;;;;10.50;6.00;;;2.70;99.90;;;;;;4989663;28;20824;-63
2022/01/23 16:22:40;;;;;;;11.68;6.70;;;2.60;99.90;;;;;;4989254;28;20504;-64
2022/01/23 16:25:10;;;;;;;12.32;7.13;;;2.60;99.90;;;;;;4989476;28;20408;-64
2022/01/23 16:27:38;;;;;;;18.42;9.05;;;2.60;99.90;;;;;;4990305;28;20041;-62
2022/01/23 16:30:17;;;;;;;15.50;8.60;;;2.60;99.90;;;;;;4989293;28;20299;-64
2022/01/23 16:32:44;;;;;;;12.77;8.05;;;2.50;99.90;;;;;;4990249;28;20061;-64
2022/01/23 16:35:14;;;;;;;;;;;2.50;99.90;;;;;;5004487;28;20081;-64
2022/01/23 16:37:41;;;;;;;11.75;7.03;;;2.50;99.90;;;;;;4987156;28;19925;-63
2022/01/23 16:40:08;;;;;;;;;;;2.50;99.90;;;;;;4988468;28;20455;-63